sensor_id;sensor_type;location;lat;lon;timestamp;pressure;altitude;pressure_sealevel;temperature
15709;BMP180;7954;51.914;8.420;2023-02-28T00:01:37;101813.53;;;7.07
15709;BMP180;7954;51.914;8.420;2023-02-28T00:04:07;101816.69;;;7.02
15709;BMP180;7954;51.914;8.420;2023-02-28T00:06:36;101813.91;;;6.97
15709;BMP180;7954;51.914;8.420;2023-02-28T00:09:04;101811.75;;;6.91
15709;BMP180;7954;51.914;8.420;2023-02-28T00:11:31;101811.78;;;6.83
15709;BMP180;7954;51.914;8.420;2023-02-28T00:13:59;101807.75;;;6.79
15709;BMP180;7954;51.914;8.420;2023-02-28T00:16:27;101802.66;;;6.87
15709;BMP180;7954;51.914;8.420;2023-02-28T00:18:55;101804.25;;;6.87
15709;BMP180;7954;51.914;8.420;2023-02-28T00:21:24;101801.72;;;6.83
15709;BMP180;7954;51.914;8.420;2023-02-28T00:23:53;101804.91;;;6.78
15709;BMP180;7954;51.914;8.420;2023-02-28T00:26:21;101805.22;;;6.79
15709;BMP180;7954;51.914;8.420;2023-02-28T00:28:49;101813.34;;;6.86
15709;BMP180;7954;51.914;8.420;2023-02-28T00:31:19;101806.38;;;6.97
15709;BMP180;7954;51.914;8.420;2023-02-28T00:33:47;101805.44;;;7.01
15709;BMP180;7954;51.914;8.420;2023-02-28T00:36:15;101805.41;;;7.04
15709;BMP180;7954;51.914;8.420;2023-02-28T00:38:44;101814.75;;;7.13
15709;BMP180;7954;51.914;8.420;2023-02-28T00:41:12;101811.88;;;7.20
15709;BMP180;7954;51.914;8.420;2023-02-28T00:43:40;101813.75;;;7.21
15709;BMP180;7954;51.914;8.420;2023-02-28T00:46:09;101801.53;;;7.18
15709;BMP180;7954;51.914;8.420;2023-02-28T00:48:38;101803.44;;;7.15
15709;BMP180;7954;51.914;8.420;2023-02-28T00:51:05;101807.50;;;7.15
15709;BMP180;7954;51.914;8.420;2023-02-28T00:53:33;101805.97;;;7.15
15709;BMP180;7954;51.914;8.420;2023-02-28T00:56:03;101813.81;;;7.13
15709;BMP180;7954;51.914;8.420;2023-02-28T00:58:31;101811.63;;;7.14
15709;BMP180;7954;51.914;8.420;2023-02-28T01:01:00;101814.44;;;7.12
15709;BMP180;7954;51.914;8.420;2023-02-28T01:03:28;101813.81;;;7.13
15709;BMP180;7954;51.914;8.420;2023-02-28T01:05:56;101819.19;;;7.10
15709;BMP180;7954;51.914;8.420;2023-02-28T01:08:24;101822.38;;;7.02
15709;BMP180;7954;51.914;8.420;2023-02-28T01:10:53;101814.84;;;6.98
15709;BMP180;7954;51.914;8.420;2023-02-28T01:13:23;101815.81;;;6.94
15709;BMP180;7954;51.914;8.420;2023-02-28T01:15:55;101818.63;;;6.96
15709;BMP180;7954;51.914;8.420;2023-02-28T01:18:23;101816.13;;;6.96
15709;BMP180;7954;51.914;8.420;2023-02-28T01:20:51;101823.34;;;6.90
15709;BMP180;7954;51.914;8.420;2023-02-28T01:23:20;101812.41;;;6.86
15709;BMP180;7954;51.914;8.420;2023-02-28T01:25:50;101815.88;;;6.82
15709;BMP180;7954;51.914;8.420;2023-02-28T01:28:19;101809.00;;;6.73
15709;BMP180;7954;51.914;8.420;2023-02-28T01:30:50;101814.69;;;6.68
15709;BMP180;7954;51.914;8.420;2023-02-28T01:33:18;101808.09;;;6.65
15709;BMP180;7954;51.914;8.420;2023-02-28T01:35:46;101819.41;;;6.59
15709;BMP180;7954;51.914;8.420;2023-02-28T01:38:14;101812.22;;;6.56
15709;BMP180;7954;51.914;8.420;2023-02-28T01:40:49;101814.44;;;6.51
15709;BMP180;7954;51.914;8.420;2023-02-28T01:43:20;101808.16;;;6.49
15709;BMP180;7954;51.914;8.420;2023-02-28T01:45:51;101803.78;;;6.44
15709;BMP180;7954;51.914;8.420;2023-02-28T01:48:21;101810.09;;;6.42
15709;BMP180;7954;51.914;8.420;2023-02-28T01:50:50;101812.59;;;6.34
15709;BMP180;7954;51.914;8.420;2023-02-28T01:53:21;101808.53;;;6.27
15709;BMP180;7954;51.914;8.420;2023-02-28T01:55:53;101815.75;;;6.25
15709;BMP180;7954;51.914;8.420;2023-02-28T01:58:21;101805.44;;;6.24
15709;BMP180;7954;51.914;8.420;2023-02-28T02:00:51;101810.75;;;6.21
15709;BMP180;7954;51.914;8.420;2023-02-28T02:03:20;101816.72;;;6.18
15709;BMP180;7954;51.914;8.420;2023-02-28T02:05:48;101819.22;;;6.14
15709;BMP180;7954;51.914;8.420;2023-02-28T02:08:18;101817.03;;;6.11
15709;BMP180;7954;51.914;8.420;2023-02-28T02:10:49;101818.59;;;6.07
15709;BMP180;7954;51.914;8.420;2023-02-28T02:13:28;101818.91;;;6.08
15709;BMP180;7954;51.914;8.420;2023-02-28T02:16:11;101820.19;;;6.10
15709;BMP180;7954;51.914;8.420;2023-02-28T02:18:43;101818.28;;;6.13
15709;BMP180;7954;51.914;8.420;2023-02-28T02:27:27;101810.47;;;6.08
15709;BMP180;7954;51.914;8.420;2023-02-28T02:30:25;101813.91;;;6.04
15709;BMP180;7954;51.914;8.420;2023-02-28T02:33:10;101809.84;;;6.01
15709;BMP180;7954;51.914;8.420;2023-02-28T02:35:48;101807.66;;;5.98
15709;BMP180;7954;51.914;8.420;2023-02-28T02:38:30;101805.78;;;5.93
15709;BMP180;7954;51.914;8.420;2023-02-28T02:41:05;101806.41;;;5.88
15709;BMP180;7954;51.914;8.420;2023-02-28T02:43:37;101815.81;;;5.81
15709;BMP180;7954;51.914;8.420;2023-02-28T02:46:10;101809.56;;;5.79
15709;BMP180;7954;51.914;8.420;2023-02-28T02:48:41;101805.47;;;5.76
15709;BMP180;7954;51.914;8.420;2023-02-28T02:51:14;101813.59;;;5.71
15709;BMP180;7954;51.914;8.420;2023-02-28T02:53:46;101813.28;;;5.66
15709;BMP180;7954;51.914;8.420;2023-02-28T02:56:18;101809.22;;;5.62
15709;BMP180;7954;51.914;8.420;2023-02-28T02:58:48;101809.50;;;5.60
15709;BMP180;7954;51.914;8.420;2023-02-28T03:01:19;101814.84;;;5.57
15709;BMP180;7954;51.914;8.420;2023-02-28T03:03:56;101817.66;;;5.55
15709;BMP180;7954;51.914;8.420;2023-02-28T03:06:27;101818.28;;;5.50
15709;BMP180;7954;51.914;8.420;2023-02-28T03:08:55;101809.53;;;5.48
15709;BMP180;7954;51.914;8.420;2023-02-28T03:11:23;101821.72;;;5.46
15709;BMP180;7954;51.914;8.420;2023-02-28T03:14:15;101821.41;;;5.45
15709;BMP180;7954;51.914;8.420;2023-02-28T03:16:57;101818.91;;;5.45
15709;BMP180;7954;51.914;8.420;2023-02-28T03:19:37;101821.09;;;5.43
15709;BMP180;7954;51.914;8.420;2023-02-28T03:22:16;101826.41;;;5.37
15709;BMP180;7954;51.914;8.420;2023-02-28T03:24:52;101822.34;;;5.37
15709;BMP180;7954;51.914;8.420;2023-02-28T03:27:24;101817.03;;;5.32
15709;BMP180;7954;51.914;8.420;2023-02-28T03:30:00;101819.84;;;5.33
15709;BMP180;7954;51.914;8.420;2023-02-28T03:32:34;101822.03;;;5.32
15709;BMP180;7954;51.914;8.420;2023-02-28T03:35:08;101819.53;;;5.28
15709;BMP180;7954;51.914;8.420;2023-02-28T03:37:42;101818.88;;;5.25
15709;BMP180;7954;51.914;8.420;2023-02-28T03:40:14;101828.59;;;5.23
15709;BMP180;7954;51.914;8.420;2023-02-28T03:42:46;101811.38;;;5.21
15709;BMP180;7954;51.914;8.420;2023-02-28T03:45:16;101823.25;;;5.18
15709;BMP180;7954;51.914;8.420;2023-02-28T03:47:51;101817.91;;;5.16
15709;BMP180;7954;51.914;8.420;2023-02-28T03:50:22;101819.19;;;5.14
15709;BMP180;7954;51.914;8.420;2023-02-28T03:52:58;101819.19;;;5.14
15709;BMP180;7954;51.914;8.420;2023-02-28T03:55:35;101819.19;;;5.14
15709;BMP180;7954;51.914;8.420;2023-02-28T03:58:11;101813.53;;;5.11
15709;BMP180;7954;51.914;8.420;2023-02-28T04:00:43;101814.78;;;5.09
15709;BMP180;7954;51.914;8.420;2023-02-28T04:03:13;101821.69;;;5.10
15709;BMP180;7954;51.914;8.420;2023-02-28T04:05:50;101813.22;;;5.10
15709;BMP180;7954;51.914;8.420;2023-02-28T04:08:20;101821.03;;;5.07
15709;BMP180;7954;51.914;8.420;2023-02-28T04:10:53;101824.50;;;5.08
15709;BMP180;7954;51.914;8.420;2023-02-28T04:13:23;101817.91;;;5.05
15709;BMP180;7954;51.914;8.420;2023-02-28T04:15:50;101821.63;;;5.03
15709;BMP180;7954;51.914;8.420;2023-02-28T04:18:22;101819.75;;;5.02
15709;BMP180;7954;51.914;8.420;2023-02-28T04:20:50;101821.94;;;5.00
15709;BMP180;7954;51.914;8.420;2023-02-28T04:23:19;101822.56;;;4.99
15709;BMP180;7954;51.914;8.420;2023-02-28T04:25:47;101821.63;;;4.99
15709;BMP180;7954;51.914;8.420;2023-02-28T04:28:15;101819.75;;;4.94
15709;BMP180;7954;51.914;8.420;2023-02-28T04:30:44;101818.78;;;4.93
15709;BMP180;7954;51.914;8.420;2023-02-28T04:33:12;101815.66;;;4.90
15709;BMP180;7954;51.914;8.420;2023-02-28T04:35:40;101820.66;;;4.90
15709;BMP180;7954;51.914;8.420;2023-02-28T04:38:07;101817.53;;;4.87
15709;BMP180;7954;51.914;8.420;2023-02-28T04:40:37;101818.16;;;4.86
15709;BMP180;7954;51.914;8.420;2023-02-28T04:43:05;101814.38;;;4.84
15709;BMP180;7954;51.914;8.420;2023-02-28T04:45:34;101809.06;;;4.83
15709;BMP180;7954;51.914;8.420;2023-02-28T04:48:02;101810.66;;;4.82
15709;BMP180;7954;51.914;8.420;2023-02-28T04:50:30;101811.25;;;4.77
15709;BMP180;7954;51.914;8.420;2023-02-28T04:52:58;101814.38;;;4.76
15709;BMP180;7954;51.914;8.420;2023-02-28T04:55:26;101814.97;;;4.75
15709;BMP180;7954;51.914;8.420;2023-02-28T04:57:55;101815.28;;;4.73
15709;BMP180;7954;51.914;8.420;2023-02-28T05:00:23;101811.88;;;4.72
15709;BMP180;7954;51.914;8.420;2023-02-28T05:02:51;101816.50;;;4.67
15709;BMP180;7954;51.914;8.420;2023-02-28T05:05:19;101819.00;;;4.67
15709;BMP180;7954;51.914;8.420;2023-02-28T05:07:47;101817.13;;;4.66
15709;BMP180;7954;51.914;8.420;2023-02-28T05:10:16;101815.56;;;4.66
15709;BMP180;7954;51.914;8.420;2023-02-28T05:12:43;101818.69;;;4.65
15709;BMP180;7954;51.914;8.420;2023-02-28T05:15:14;101821.19;;;4.65
15709;BMP180;7954;51.914;8.420;2023-02-28T05:17:44;101832.44;;;4.63
15709;BMP180;7954;51.914;8.420;2023-02-28T05:20:12;101823.06;;;4.62
15709;BMP180;7954;51.914;8.420;2023-02-28T05:22:42;101825.53;;;4.58
15709;BMP180;7954;51.914;8.420;2023-02-28T05:25:13;101826.50;;;4.59
15709;BMP180;7954;51.914;8.420;2023-02-28T05:27:42;101828.34;;;4.56
15709;BMP180;7954;51.914;8.420;2023-02-28T05:30:11;101833.31;;;4.56
15709;BMP180;7954;51.914;8.420;2023-02-28T05:32:42;101835.53;;;4.54
15709;BMP180;7954;51.914;8.420;2023-02-28T05:35:11;101833.94;;;4.51
15709;BMP180;7954;51.914;8.420;2023-02-28T05:37:39;101843.00;;;4.50
15709;BMP180;7954;51.914;8.420;2023-02-28T05:40:08;101849.22;;;4.48
15709;BMP180;7954;51.914;8.420;2023-02-28T05:42:38;101842.38;;;4.47
15709;BMP180;7954;51.914;8.420;2023-02-28T05:45:07;101843.00;;;4.46
15709;BMP180;7954;51.914;8.420;2023-02-28T05:47:35;101840.50;;;4.46
15709;BMP180;7954;51.914;8.420;2023-02-28T05:50:06;101847.03;;;4.46
15709;BMP180;7954;51.914;8.420;2023-02-28T05:52:35;101843.91;;;4.43
15709;BMP180;7954;51.914;8.420;2023-02-28T05:55:04;101850.44;;;4.39
15709;BMP180;7954;51.914;8.420;2023-02-28T05:57:32;101847.94;;;4.39
15709;BMP180;7954;51.914;8.420;2023-02-28T06:00:02;101838.56;;;4.38
15709;BMP180;7954;51.914;8.420;2023-02-28T06:02:30;101843.88;;;4.35
15709;BMP180;7954;51.914;8.420;2023-02-28T06:04:58;101842.31;;;4.40
15709;BMP180;7954;51.914;8.420;2023-02-28T06:07:28;101847.00;;;4.42
15709;BMP180;7954;51.914;8.420;2023-02-28T06:09:56;101842.69;;;4.45
15709;BMP180;7954;51.914;8.420;2023-02-28T06:12:25;101843.00;;;4.50
15709;BMP180;7954;51.914;8.420;2023-02-28T06:14:53;101845.81;;;4.48
15709;BMP180;7954;51.914;8.420;2023-02-28T06:17:21;101845.50;;;4.50
15709;BMP180;7954;51.914;8.420;2023-02-28T06:19:49;101853.31;;;4.52
15709;BMP180;7954;51.914;8.420;2023-02-28T06:22:17;101846.78;;;4.52
15709;BMP180;7954;51.914;8.420;2023-02-28T06:24:46;101856.78;;;4.52
15709;BMP180;7954;51.914;8.420;2023-02-28T06:27:15;101849.91;;;4.55
15709;BMP180;7954;51.914;8.420;2023-02-28T06:29:43;101851.78;;;4.56
15709;BMP180;7954;51.914;8.420;2023-02-28T06:32:11;101848.03;;;4.58
15709;BMP180;7954;51.914;8.420;2023-02-28T06:34:39;101852.72;;;4.61
15709;BMP180;7954;51.914;8.420;2023-02-28T06:37:06;101855.91;;;4.64
15709;BMP180;7954;51.914;8.420;2023-02-28T06:39:34;101852.78;;;4.69
15709;BMP180;7954;51.914;8.420;2023-02-28T06:42:05;101853.09;;;4.70
15709;BMP180;7954;51.914;8.420;2023-02-28T06:44:33;101875.72;;;3.94
15709;BMP180;7954;51.914;8.420;2023-02-28T06:47:02;101867.31;;;4.43
15709;BMP180;7954;51.914;8.420;2023-02-28T06:49:32;101860.00;;;4.71
15709;BMP180;7954;51.914;8.420;2023-02-28T06:52:01;101857.22;;;4.86
15709;BMP180;7954;51.914;8.420;2023-02-28T06:54:29;101872.00;;;5.00
15709;BMP180;7954;51.914;8.420;2023-02-28T06:56:57;101859.84;;;5.09
15709;BMP180;7954;51.914;8.420;2023-02-28T06:59:27;101862.97;;;5.16
15709;BMP180;7954;51.914;8.420;2023-02-28T07:01:56;101863.94;;;5.25
15709;BMP180;7954;51.914;8.420;2023-02-28T07:04:24;101869.28;;;5.30
15709;BMP180;7954;51.914;8.420;2023-02-28T07:06:52;101871.78;;;5.34
15709;BMP180;7954;51.914;8.420;2023-02-28T07:09:23;101872.09;;;5.40
15709;BMP180;7954;51.914;8.420;2023-02-28T07:11:51;101873.06;;;5.44
15709;BMP180;7954;51.914;8.420;2023-02-28T07:14:18;101879.34;;;5.50
15709;BMP180;7954;51.914;8.420;2023-02-28T07:16:49;101878.06;;;5.56
15709;BMP180;7954;51.914;8.420;2023-02-28T07:19:17;101869.63;;;5.64
15709;BMP180;7954;51.914;8.420;2023-02-28T07:21:46;101885.94;;;5.70
15709;BMP180;7954;51.914;8.420;2023-02-28T07:24:16;101880.03;;;5.77
15709;BMP180;7954;51.914;8.420;2023-02-28T07:26:44;101884.09;;;5.84
15709;BMP180;7954;51.914;8.420;2023-02-28T07:29:12;101883.47;;;5.89
15709;BMP180;7954;51.914;8.420;2023-02-28T07:31:40;101885.34;;;5.90
15709;BMP180;7954;51.914;8.420;2023-02-28T07:34:10;101890.97;;;5.93
15709;BMP180;7954;51.914;8.420;2023-02-28T07:36:38;101884.41;;;6.02
15709;BMP180;7954;51.914;8.420;2023-02-28T07:39:06;101882.84;;;6.06
15709;BMP180;7954;51.914;8.420;2023-02-28T07:41:35;101881.91;;;6.14
15709;BMP180;7954;51.914;8.420;2023-02-28T07:44:09;101886.28;;;6.23
15709;BMP180;7954;51.914;8.420;2023-02-28T07:46:38;101878.41;;;6.33
15709;BMP180;7954;51.914;8.420;2023-02-28T07:49:07;101879.66;;;6.43
15709;BMP180;7954;51.914;8.420;2023-02-28T07:51:37;101884.69;;;6.51
15709;BMP180;7954;51.914;8.420;2023-02-28T07:54:05;101878.38;;;6.53
15709;BMP180;7954;51.914;8.420;2023-02-28T07:56:33;101878.69;;;6.62
15709;BMP180;7954;51.914;8.420;2023-02-28T07:59:02;101878.34;;;6.77
15709;BMP180;7954;51.914;8.420;2023-02-28T08:01:30;101880.16;;;6.90
15709;BMP180;7954;51.914;8.420;2023-02-28T08:03:58;101876.28;;;7.07
15709;BMP180;7954;51.914;8.420;2023-02-28T08:06:26;101870.59;;;7.20
15709;BMP180;7954;51.914;8.420;2023-02-28T08:08:56;101874.28;;;7.34
15709;BMP180;7954;51.914;8.420;2023-02-28T08:11:24;101865.72;;;7.46
15709;BMP180;7954;51.914;8.420;2023-02-28T08:13:54;101873.78;;;7.61
15709;BMP180;7954;51.914;8.420;2023-02-28T08:16:22;101857.72;;;7.72
15709;BMP180;7954;51.914;8.420;2023-02-28T08:18:50;101861.06;;;7.80
15709;BMP180;7954;51.914;8.420;2023-02-28T08:21:20;101863.50;;;7.92
15709;BMP180;7954;51.914;8.420;2023-02-28T08:23:49;101858.69;;;8.06
15709;BMP180;7954;51.914;8.420;2023-02-28T08:26:20;101855.13;;;8.17
15709;BMP180;7954;51.914;8.420;2023-02-28T08:28:48;101853.44;;;8.30
15709;BMP180;7954;51.914;8.420;2023-02-28T08:31:17;101851.41;;;8.44
15709;BMP180;7954;51.914;8.420;2023-02-28T08:33:45;101842.47;;;8.54
15709;BMP180;7954;51.914;8.420;2023-02-28T08:36:15;101843.28;;;8.67
15709;BMP180;7954;51.914;8.420;2023-02-28T08:38:43;101852.22;;;8.82
15709;BMP180;7954;51.914;8.420;2023-02-28T08:41:12;101845.44;;;8.94
15709;BMP180;7954;51.914;8.420;2023-02-28T08:43:42;101842.78;;;9.06
15709;BMP180;7954;51.914;8.420;2023-02-28T08:46:12;101837.59;;;9.14
15709;BMP180;7954;51.914;8.420;2023-02-28T08:48:41;101833.66;;;9.28
15709;BMP180;7954;51.914;8.420;2023-02-28T08:51:11;101835.63;;;9.43
15709;BMP180;7954;51.914;8.420;2023-02-28T08:53:39;101839.63;;;9.50
15709;BMP180;7954;51.914;8.420;2023-02-28T08:56:10;101837.97;;;9.55
15709;BMP180;7954;51.914;8.420;2023-02-28T08:58:38;101837.84;;;9.62
15709;BMP180;7954;51.914;8.420;2023-02-28T09:01:12;101839.19;;;9.78
15709;BMP180;7954;51.914;8.420;2023-02-28T09:03:42;101839.97;;;9.86
15709;BMP180;7954;51.914;8.420;2023-02-28T09:06:10;101829.72;;;9.98
15709;BMP180;7954;51.914;8.420;2023-02-28T09:08:39;101839.00;;;10.07
15709;BMP180;7954;51.914;8.420;2023-02-28T09:11:07;101840.09;;;10.17
15709;BMP180;7954;51.914;8.420;2023-02-28T09:13:35;101836.22;;;10.23
15709;BMP180;7954;51.914;8.420;2023-02-28T09:16:06;101837.72;;;10.26
15709;BMP180;7954;51.914;8.420;2023-02-28T09:18:37;101823.75;;;10.32
15709;BMP180;7954;51.914;8.420;2023-02-28T09:21:06;101825.72;;;10.43
15709;BMP180;7954;51.914;8.420;2023-02-28T09:23:34;101824.91;;;10.52
15709;BMP180;7954;51.914;8.420;2023-02-28T09:26:04;101817.84;;;10.59
15709;BMP180;7954;51.914;8.420;2023-02-28T09:28:33;101816.34;;;10.55
15709;BMP180;7954;51.914;8.420;2023-02-28T09:31:01;101817.75;;;10.63
15709;BMP180;7954;51.914;8.420;2023-02-28T09:33:31;101824.50;;;10.72
15709;BMP180;7954;51.914;8.420;2023-02-28T09:36:02;101815.78;;;10.83
15709;BMP180;7954;51.914;8.420;2023-02-28T09:38:31;101815.13;;;10.97
15709;BMP180;7954;51.914;8.420;2023-02-28T09:41:00;101820.47;;;11.12
15709;BMP180;7954;51.914;8.420;2023-02-28T09:43:33;101818.72;;;11.21
15709;BMP180;7954;51.914;8.420;2023-02-28T09:46:10;101821.91;;;11.20
15709;BMP180;7954;51.914;8.420;2023-02-28T09:48:45;101817.69;;;11.24
15709;BMP180;7954;51.914;8.420;2023-02-28T09:51:28;101815.16;;;11.24
15709;BMP180;7954;51.914;8.420;2023-02-28T09:53:59;101818.84;;;11.30
15709;BMP180;7954;51.914;8.420;2023-02-28T09:56:31;101816.22;;;11.48
15709;BMP180;7954;51.914;8.420;2023-02-28T09:59:02;101812.16;;;11.71
15709;BMP180;7954;51.914;8.420;2023-02-28T10:01:39;101810.47;;;11.89
15709;BMP180;7954;51.914;8.420;2023-02-28T10:04:33;101811.06;;;12.15
15709;BMP180;7954;51.914;8.420;2023-02-28T10:07:14;101813.31;;;12.36
15709;BMP180;7954;51.914;8.420;2023-02-28T10:09:49;101820.69;;;12.44
15709;BMP180;7954;51.914;8.420;2023-02-28T10:12:19;101814.19;;;12.50
15709;BMP180;7954;51.914;8.420;2023-02-28T10:14:51;101817.16;;;12.57
15709;BMP180;7954;51.914;8.420;2023-02-28T10:17:22;101821.06;;;12.64
15709;BMP180;7954;51.914;8.420;2023-02-28T10:19:58;101821.66;;;12.77
15709;BMP180;7954;51.914;8.420;2023-02-28T10:22:34;101819.91;;;12.81
15709;BMP180;7954;51.914;8.420;2023-02-28T10:25:17;101816.03;;;12.74
15709;BMP180;7954;51.914;8.420;2023-02-28T10:27:45;101814.91;;;12.58
15709;BMP180;7954;51.914;8.420;2023-02-28T10:30:13;101826.00;;;12.45
15709;BMP180;7954;51.914;8.420;2023-02-28T10:32:46;101824.84;;;12.53
15709;BMP180;7954;51.914;8.420;2023-02-28T10:35:17;101816.72;;;12.73
15709;BMP180;7954;51.914;8.420;2023-02-28T10:37:47;101811.53;;;12.77
15709;BMP180;7954;51.914;8.420;2023-02-28T10:40:30;101807.50;;;12.73
15709;BMP180;7954;51.914;8.420;2023-02-28T10:43:01;101806.06;;;12.79
15709;BMP180;7954;51.914;8.420;2023-02-28T10:45:30;101815.31;;;12.88
15709;BMP180;7954;51.914;8.420;2023-02-28T10:48:00;101809.63;;;12.98
15709;BMP180;7954;51.914;8.420;2023-02-28T10:50:33;101806.28;;;13.03
15709;BMP180;7954;51.914;8.420;2023-02-28T10:53:14;101802.56;;;13.11
15709;BMP180;7954;51.914;8.420;2023-02-28T10:55:43;101803.66;;;13.17
15709;BMP180;7954;51.914;8.420;2023-02-28T10:58:21;101811.97;;;13.25
15709;BMP180;7954;51.914;8.420;2023-02-28T11:00:50;101796.59;;;13.29
15709;BMP180;7954;51.914;8.420;2023-02-28T11:03:30;101798.38;;;13.25
15709;BMP180;7954;51.914;8.420;2023-02-28T11:05:59;101803.13;;;13.14
15709;BMP180;7954;51.914;8.420;2023-02-28T11:08:34;101800.03;;;13.11
15709;BMP180;7954;51.914;8.420;2023-02-28T11:11:11;101798.69;;;12.94
15709;BMP180;7954;51.914;8.420;2023-02-28T11:13:39;101794.97;;;13.01
15709;BMP180;7954;51.914;8.420;2023-02-28T11:16:11;101797.38;;;13.05
15709;BMP180;7954;51.914;8.420;2023-02-28T11:18:43;101790.69;;;13.06
15709;BMP180;7954;51.914;8.420;2023-02-28T11:21:18;101788.84;;;13.14
15709;BMP180;7954;51.914;8.420;2023-02-28T11:23:49;101790.72;;;13.15
15709;BMP180;7954;51.914;8.420;2023-02-28T11:26:36;101786.34;;;13.43
15709;BMP180;7954;51.914;8.420;2023-02-28T11:29:12;101777.94;;;13.66
15709;BMP180;7954;51.914;8.420;2023-02-28T11:31:40;101786.47;;;13.76
15709;BMP180;7954;51.914;8.420;2023-02-28T11:34:24;101781.53;;;13.91
15709;BMP180;7954;51.914;8.420;2023-02-28T11:36:55;101769.22;;;13.98
15709;BMP180;7954;51.914;8.420;2023-02-28T11:39:26;101762.16;;;14.11
15709;BMP180;7954;51.914;8.420;2023-02-28T11:42:06;101765.47;;;14.24
15709;BMP180;7954;51.914;8.420;2023-02-28T11:44:45;101760.13;;;14.23
15709;BMP180;7954;51.914;8.420;2023-02-28T11:47:30;101756.25;;;14.06
15709;BMP180;7954;51.914;8.420;2023-02-28T11:50:13;101747.44;;;13.95
15709;BMP180;7954;51.914;8.420;2023-02-28T11:52:51;101758.41;;;13.99
15709;BMP180;7954;51.914;8.420;2023-02-28T11:55:25;101752.00;;;13.82
15709;BMP180;7954;51.914;8.420;2023-02-28T11:58:14;101737.84;;;13.79
15709;BMP180;7954;51.914;8.420;2023-02-28T12:01:02;101744.38;;;13.92
15709;BMP180;7954;51.914;8.420;2023-02-28T12:03:43;101740.38;;;13.88
15709;BMP180;7954;51.914;8.420;2023-02-28T12:06:20;101735.44;;;13.84
15709;BMP180;7954;51.914;8.420;2023-02-28T12:09:00;101735.56;;;13.80
15709;BMP180;7954;51.914;8.420;2023-02-28T12:11:40;101725.69;;;13.82
15709;BMP180;7954;51.914;8.420;2023-02-28T12:14:25;101723.94;;;13.96
15709;BMP180;7954;51.914;8.420;2023-02-28T12:17:04;101731.13;;;13.98
15709;BMP180;7954;51.914;8.420;2023-02-28T12:19:43;101718.81;;;14.05
15709;BMP180;7954;51.914;8.420;2023-02-28T12:22:25;101724.03;;;14.01
15709;BMP180;7954;51.914;8.420;2023-02-28T12:25:29;101721.25;;;13.90
15709;BMP180;7954;51.914;8.420;2023-02-28T12:28:02;101721.25;;;13.90
15709;BMP180;7954;51.914;8.420;2023-02-28T12:30:32;101722.59;;;13.79
15709;BMP180;7954;51.914;8.420;2023-02-28T12:33:04;101724.09;;;13.73
15709;BMP180;7954;51.914;8.420;2023-02-28T12:35:37;101720.47;;;13.76
15709;BMP180;7954;51.914;8.420;2023-02-28T12:38:10;101718.50;;;13.79
15709;BMP180;7954;51.914;8.420;2023-02-28T12:40:44;101713.66;;;13.71
15709;BMP180;7954;51.914;8.420;2023-02-28T12:43:16;101718.09;;;13.63
15709;BMP180;7954;51.914;8.420;2023-02-28T12:45:47;101710.63;;;13.49
15709;BMP180;7954;51.914;8.420;2023-02-28T12:48:22;101724.13;;;13.45
15709;BMP180;7954;51.914;8.420;2023-02-28T12:50:52;101708.56;;;13.90
15709;BMP180;7954;51.914;8.420;2023-02-28T12:53:24;101700.13;;;14.38
15709;BMP180;7954;51.914;8.420;2023-02-28T12:56:05;101687.94;;;14.90
15709;BMP180;7954;51.914;8.420;2023-02-28T12:58:40;101674.38;;;15.49
15709;BMP180;7954;51.914;8.420;2023-02-28T13:08:10;101652.00;;;17.20
15709;BMP180;7954;51.914;8.420;2023-02-28T13:10:42;101636.16;;;17.85
15709;BMP180;7954;51.914;8.420;2023-02-28T13:13:15;101617.44;;;18.06
15709;BMP180;7954;51.914;8.420;2023-02-28T13:16:01;101622.97;;;18.63
15709;BMP180;7954;51.914;8.420;2023-02-28T13:18:32;101611.34;;;19.14
15709;BMP180;7954;51.914;8.420;2023-02-28T13:21:02;101599.06;;;19.73
15709;BMP180;7954;51.914;8.420;2023-02-28T13:23:41;101591.41;;;20.23
15709;BMP180;7954;51.914;8.420;2023-02-28T13:29:31;101585.81;;;21.35
15709;BMP180;7954;51.914;8.420;2023-02-28T13:32:36;101582.63;;;21.90
15709;BMP180;7954;51.914;8.420;2023-02-28T13:35:37;101585.94;;;22.19
15709;BMP180;7954;51.914;8.420;2023-02-28T13:44:02;101569.63;;;23.29
15709;BMP180;7954;51.914;8.420;2023-02-28T13:46:31;101563.38;;;23.84
15709;BMP180;7954;51.914;8.420;2023-02-28T13:49:24;101563.59;;;24.17
15709;BMP180;7954;51.914;8.420;2023-02-28T13:51:55;101565.94;;;24.47
15709;BMP180;7954;51.914;8.420;2023-02-28T13:54:42;101570.41;;;24.94
15709;BMP180;7954;51.914;8.420;2023-02-28T13:57:24;101565.09;;;25.26
15709;BMP180;7954;51.914;8.420;2023-02-28T14:00:15;101567.28;;;25.56
15709;BMP180;7954;51.914;8.420;2023-02-28T14:02:57;101575.81;;;25.95
15709;BMP180;7954;51.914;8.420;2023-02-28T14:05:32;101570.34;;;26.20
15709;BMP180;7954;51.914;8.420;2023-02-28T14:08:05;101574.41;;;26.25
15709;BMP180;7954;51.914;8.420;2023-02-28T14:10:36;101570.41;;;26.55
15709;BMP180;7954;51.914;8.420;2023-02-28T14:15:58;101554.81;;;27.10
15709;BMP180;7954;51.914;8.420;2023-02-28T14:18:29;101550.31;;;27.44
15709;BMP180;7954;51.914;8.420;2023-02-28T14:21:10;101548.22;;;27.98
15709;BMP180;7954;51.914;8.420;2023-02-28T14:23:54;101543.34;;;28.38
15709;BMP180;7954;51.914;8.420;2023-02-28T14:26:34;101535.81;;;28.70
15709;BMP180;7954;51.914;8.420;2023-02-28T14:29:27;101531.41;;;29.07
15709;BMP180;7954;51.914;8.420;2023-02-28T14:32:01;101540.66;;;29.12
15709;BMP180;7954;51.914;8.420;2023-02-28T14:34:36;101527.91;;;29.22
15709;BMP180;7954;51.914;8.420;2023-02-28T14:37:13;101532.47;;;29.46
15709;BMP180;7954;51.914;8.420;2023-02-28T14:39:43;101528.00;;;29.76
15709;BMP180;7954;51.914;8.420;2023-02-28T14:42:31;101511.97;;;30.04
15709;BMP180;7954;51.914;8.420;2023-02-28T14:45:00;101506.78;;;30.28
15709;BMP180;7954;51.914;8.420;2023-02-28T14:47:31;101509.91;;;30.41
15709;BMP180;7954;51.914;8.420;2023-02-28T14:50:02;101515.56;;;30.60
15709;BMP180;7954;51.914;8.420;2023-02-28T14:52:33;101512.25;;;30.70
15709;BMP180;7954;51.914;8.420;2023-02-28T14:55:03;101504.28;;;30.85
15709;BMP180;7954;51.914;8.420;2023-02-28T14:57:39;101508.88;;;30.71
15709;BMP180;7954;51.914;8.420;2023-02-28T15:00:14;101512.28;;;30.78
15709;BMP180;7954;51.914;8.420;2023-02-28T15:02:43;101519.13;;;30.69
15709;BMP180;7954;51.914;8.420;2023-02-28T15:05:22;101510.44;;;30.77
15709;BMP180;7954;51.914;8.420;2023-02-28T15:08:03;101524.53;;;30.79
15709;BMP180;7954;51.914;8.420;2023-02-28T15:10:33;101522.47;;;30.60